sensor_id;sensor_type;location;lat;lon;timestamp;pressure;altitude;pressure_sealevel;temperature;humidity
62025;BME280;47978;49.118;12.146;2022-12-29T00:00:28;97299.00;;;4.57;77.30
62025;BME280;47978;49.118;12.146;2022-12-29T00:04:30;97294.38;;;4.72;76.32
62025;BME280;47978;49.118;12.146;2022-12-29T00:08:32;97286.41;;;4.71;76.54
62025;BME280;47978;49.118;12.146;2022-12-29T00:12:34;97291.88;;;4.86;75.57
62025;BME280;47978;49.118;12.146;2022-12-29T00:16:35;97291.09;;;4.70;75.61
62025;BME280;47978;49.118;12.146;2022-12-29T00:20:37;97288.59;;;4.74;76.47
62025;BME280;47978;49.118;12.146;2022-12-29T00:24:40;97284.75;;;4.75;75.85
62025;BME280;47978;49.118;12.146;2022-12-29T00:28:41;97276.84;;;4.73;76.50
62025;BME280;47978;49.118;12.146;2022-12-29T00:32:43;97275.72;;;4.74;75.75
62025;BME280;47978;49.118;12.146;2022-12-29T00:36:44;97274.94;;;4.84;75.59
62025;BME280;47978;49.118;12.146;2022-12-29T00:40:47;97265.06;;;4.78;75.77
62025;BME280;47978;49.118;12.146;2022-12-29T00:44:48;97264.22;;;4.78;76.12
62025;BME280;47978;49.118;12.146;2022-12-29T00:48:50;97259.53;;;5.04;74.51
62025;BME280;47978;49.118;12.146;2022-12-29T00:52:51;97272.16;;;4.89;76.25
62025;BME280;47978;49.118;12.146;2022-12-29T00:56:54;97260.94;;;4.91;76.53
62025;BME280;47978;49.118;12.146;2022-12-29T01:01:00;97261.16;;;5.15;74.27
62025;BME280;47978;49.118;12.146;2022-12-29T01:05:02;97258.72;;;5.18;74.05
62025;BME280;47978;49.118;12.146;2022-12-29T01:09:03;97252.13;;;5.25;73.53
62025;BME280;47978;49.118;12.146;2022-12-29T01:13:06;97257.31;;;5.26;74.02
62025;BME280;47978;49.118;12.146;2022-12-29T01:17:08;97244.97;;;5.34;72.56
62025;BME280;47978;49.118;12.146;2022-12-29T01:21:09;97250.19;;;5.30;73.36
62025;BME280;47978;49.118;12.146;2022-12-29T01:25:11;97250.75;;;5.32;73.38
62025;BME280;47978;49.118;12.146;2022-12-29T01:29:13;97259.53;;;5.24;73.14
62025;BME280;47978;49.118;12.146;2022-12-29T01:33:15;97251.88;;;5.16;72.95
62025;BME280;47978;49.118;12.146;2022-12-29T01:37:18;97247.19;;;5.11;73.40
62025;BME280;47978;49.118;12.146;2022-12-29T01:41:19;97245.53;;;5.21;73.33
62025;BME280;47978;49.118;12.146;2022-12-29T01:45:22;97239.78;;;5.22;72.62
62025;BME280;47978;49.118;12.146;2022-12-29T01:49:24;97245.00;;;5.24;72.74
62025;BME280;47978;49.118;12.146;2022-12-29T01:53:29;97240.06;;;5.21;72.31
62025;BME280;47978;49.118;12.146;2022-12-29T01:57:33;97236.25;;;5.11;72.34
62025;BME280;47978;49.118;12.146;2022-12-29T02:01:37;97238.16;;;5.16;72.45
62025;BME280;47978;49.118;12.146;2022-12-29T02:05:40;97224.19;;;5.12;72.35
62025;BME280;47978;49.118;12.146;2022-12-29T02:09:43;97226.94;;;5.07;72.70
62025;BME280;47978;49.118;12.146;2022-12-29T02:13:45;97222.03;;;4.94;72.29
62025;BME280;47978;49.118;12.146;2022-12-29T02:17:53;97221.19;;;5.04;72.61
62025;BME280;47978;49.118;12.146;2022-12-29T02:22:02;97209.16;;;4.94;73.49
62025;BME280;47978;49.118;12.146;2022-12-29T02:30:33;97205.88;;;4.92;72.25
62025;BME280;47978;49.118;12.146;2022-12-29T02:34:38;97215.19;;;4.91;72.23
62025;BME280;47978;49.118;12.146;2022-12-29T02:38:47;97210.25;;;4.93;71.93
62025;BME280;47978;49.118;12.146;2022-12-29T02:42:50;97223.66;;;4.95;71.46
62025;BME280;47978;49.118;12.146;2022-12-29T02:46:54;97225.31;;;5.01;71.75
62025;BME280;47978;49.118;12.146;2022-12-29T02:51:00;97221.47;;;5.07;71.33
62025;BME280;47978;49.118;12.146;2022-12-29T02:55:03;97207.75;;;5.07;71.69
62025;BME280;47978;49.118;12.146;2022-12-29T02:59:04;97196.81;;;5.02;71.67
62025;BME280;47978;49.118;12.146;2022-12-29T03:03:11;97192.94;;;5.08;71.07
62025;BME280;47978;49.118;12.146;2022-12-29T03:07:19;97185.84;;;5.12;70.89
62025;BME280;47978;49.118;12.146;2022-12-29T03:11:23;97177.63;;;5.02;71.27
62025;BME280;47978;49.118;12.146;2022-12-29T03:15:30;97179.22;;;5.24;70.93
62025;BME280;47978;49.118;12.146;2022-12-29T03:19:36;97184.72;;;5.18;70.52
62025;BME280;47978;49.118;12.146;2022-12-29T03:23:39;97174.56;;;5.24;70.20
62025;BME280;47978;49.118;12.146;2022-12-29T03:27:43;97169.59;;;5.26;70.34
62025;BME280;47978;49.118;12.146;2022-12-29T03:31:46;97184.09;;;5.37;70.15
62025;BME280;47978;49.118;12.146;2022-12-29T03:35:50;97169.53;;;5.41;69.13
62025;BME280;47978;49.118;12.146;2022-12-29T03:39:53;97163.75;;;5.43;69.38
62025;BME280;47978;49.118;12.146;2022-12-29T03:43:55;97156.63;;;5.47;68.76
62025;BME280;47978;49.118;12.146;2022-12-29T03:47:56;97159.28;;;5.62;68.46
62025;BME280;47978;49.118;12.146;2022-12-29T03:51:59;97162.00;;;5.68;68.54
62025;BME280;47978;49.118;12.146;2022-12-29T03:56:00;97170.72;;;5.80;68.37
62025;BME280;47978;49.118;12.146;2022-12-29T04:00:02;97168.50;;;5.82;68.53
62025;BME280;47978;49.118;12.146;2022-12-29T04:04:04;97161.63;;;5.84;67.91
62025;BME280;47978;49.118;12.146;2022-12-29T04:08:07;97169.31;;;5.88;68.26
62025;BME280;47978;49.118;12.146;2022-12-29T04:12:08;97177.00;;;5.80;67.94
62025;BME280;47978;49.118;12.146;2022-12-29T04:16:10;97163.81;;;5.88;68.47
62025;BME280;47978;49.118;12.146;2022-12-29T04:20:11;97166.00;;;5.91;67.39
62025;BME280;47978;49.118;12.146;2022-12-29T04:24:14;97157.50;;;5.87;67.63
62025;BME280;47978;49.118;12.146;2022-12-29T04:28:15;97160.25;;;5.87;67.10
62025;BME280;47978;49.118;12.146;2022-12-29T04:32:18;97161.34;;;5.86;67.65
62025;BME280;47978;49.118;12.146;2022-12-29T04:36:20;97161.66;;;5.79;67.75
62025;BME280;47978;49.118;12.146;2022-12-29T04:40:31;97163.59;;;5.79;67.90
62025;BME280;47978;49.118;12.146;2022-12-29T04:44:32;97169.13;;;5.69;67.99
62025;BME280;47978;49.118;12.146;2022-12-29T04:48:35;97174.03;;;5.72;68.20
62025;BME280;47978;49.118;12.146;2022-12-29T04:52:36;97171.13;;;5.58;68.57
62025;BME280;47978;49.118;12.146;2022-12-29T04:56:39;97176.53;;;5.73;67.88
62025;BME280;47978;49.118;12.146;2022-12-29T05:00:41;97178.78;;;5.61;68.67
62025;BME280;47978;49.118;12.146;2022-12-29T05:04:42;97183.19;;;5.57;69.46
62025;BME280;47978;49.118;12.146;2022-12-29T05:08:43;97173.59;;;5.54;69.25
62025;BME280;47978;49.118;12.146;2022-12-29T05:12:46;97175.84;;;5.47;70.08
62025;BME280;47978;49.118;12.146;2022-12-29T05:16:48;97173.41;;;5.35;71.22
62025;BME280;47978;49.118;12.146;2022-12-29T05:20:49;97161.03;;;5.43;72.31
62025;BME280;47978;49.118;12.146;2022-12-29T05:24:50;97162.69;;;5.39;72.85
62025;BME280;47978;49.118;12.146;2022-12-29T05:28:53;97156.16;;;5.30;73.91
62025;BME280;47978;49.118;12.146;2022-12-29T05:32:55;97162.72;;;5.34;74.82
62025;BME280;47978;49.118;12.146;2022-12-29T05:36:56;97166.00;;;5.36;75.67
62025;BME280;47978;49.118;12.146;2022-12-29T05:40:57;97163.25;;;5.41;75.16
62025;BME280;47978;49.118;12.146;2022-12-29T05:45:00;97162.16;;;5.37;75.20
62025;BME280;47978;49.118;12.146;2022-12-29T05:49:02;97163.19;;;5.46;74.89
62025;BME280;47978;49.118;12.146;2022-12-29T05:53:03;97161.09;;;5.33;74.62
62025;BME280;47978;49.118;12.146;2022-12-29T05:57:04;97158.59;;;5.41;74.37
62025;BME280;47978;49.118;12.146;2022-12-29T06:01:07;97160.78;;;5.34;73.86
62025;BME280;47978;49.118;12.146;2022-12-29T06:05:09;97161.06;;;5.38;73.89
62025;BME280;47978;49.118;12.146;2022-12-29T06:09:10;97165.44;;;5.44;72.10
62025;BME280;47978;49.118;12.146;2022-12-29T06:13:12;97162.09;;;5.52;72.16
62025;BME280;47978;49.118;12.146;2022-12-29T06:17:15;97168.91;;;5.60;72.25
62025;BME280;47978;49.118;12.146;2022-12-29T06:21:17;97169.09;;;5.74;70.32
62025;BME280;47978;49.118;12.146;2022-12-29T06:25:18;97164.97;;;5.76;71.34
62025;BME280;47978;49.118;12.146;2022-12-29T06:29:20;97165.31;;;5.70;70.85
62025;BME280;47978;49.118;12.146;2022-12-29T06:33:23;97169.34;;;5.77;70.07
62025;BME280;47978;49.118;12.146;2022-12-29T06:37:24;97173.22;;;5.71;70.77
62025;BME280;47978;49.118;12.146;2022-12-29T06:41:25;97167.53;;;5.57;70.19
62025;BME280;47978;49.118;12.146;2022-12-29T06:45:32;97176.88;;;5.56;71.14
62025;BME280;47978;49.118;12.146;2022-12-29T06:49:35;97181.59;;;5.46;70.86
62025;BME280;47978;49.118;12.146;2022-12-29T06:53:36;97179.72;;;5.31;71.79
62025;BME280;47978;49.118;12.146;2022-12-29T06:57:38;97187.94;;;5.41;70.57
62025;BME280;47978;49.118;12.146;2022-12-29T07:01:39;97182.72;;;5.34;70.97
62025;BME280;47978;49.118;12.146;2022-12-29T07:05:42;97182.72;;;5.29;70.75
62025;BME280;47978;49.118;12.146;2022-12-29T07:09:44;97183.84;;;5.23;70.62
62025;BME280;47978;49.118;12.146;2022-12-29T07:13:45;97176.19;;;5.15;71.36
62025;BME280;47978;49.118;12.146;2022-12-29T07:17:46;97183.34;;;5.21;70.62
62025;BME280;47978;49.118;12.146;2022-12-29T07:21:49;97179.75;;;5.26;70.21
62025;BME280;47978;49.118;12.146;2022-12-29T07:25:58;97181.91;;;5.29;69.81
62025;BME280;47978;49.118;12.146;2022-12-29T07:29:59;97185.69;;;5.43;69.66
62025;BME280;47978;49.118;12.146;2022-12-29T07:34:00;97191.75;;;5.40;68.82
62025;BME280;47978;49.118;12.146;2022-12-29T07:38:03;97188.72;;;5.47;68.76
62025;BME280;47978;49.118;12.146;2022-12-29T07:42:05;97178.78;;;5.61;67.63
62025;BME280;47978;49.118;12.146;2022-12-29T07:46:06;97176.28;;;5.70;67.80
62025;BME280;47978;49.118;12.146;2022-12-29T07:50:07;97173.22;;;5.76;67.01
62025;BME280;47978;49.118;12.146;2022-12-29T07:54:10;97169.91;;;5.79;67.29
62025;BME280;47978;49.118;12.146;2022-12-29T07:58:12;97171.81;;;5.79;66.58
62025;BME280;47978;49.118;12.146;2022-12-29T08:02:13;97169.78;;;6.00;65.92
62025;BME280;47978;49.118;12.146;2022-12-29T08:06:15;97175.25;;;6.05;65.88
62025;BME280;47978;49.118;12.146;2022-12-29T08:10:17;97174.41;;;6.10;66.11
62025;BME280;47978;49.118;12.146;2022-12-29T08:14:19;97193.31;;;6.11;65.63
62025;BME280;47978;49.118;12.146;2022-12-29T08:18:20;97202.06;;;6.23;65.86
62025;BME280;47978;49.118;12.146;2022-12-29T08:22:22;97200.69;;;6.21;65.49
62025;BME280;47978;49.118;12.146;2022-12-29T08:26:25;97206.25;;;6.50;64.48
62025;BME280;47978;49.118;12.146;2022-12-29T08:30:26;97206.88;;;6.71;63.43
62025;BME280;47978;49.118;12.146;2022-12-29T08:34:27;97218.44;;;6.68;63.88
62025;BME280;47978;49.118;12.146;2022-12-29T08:38:29;97226.31;;;6.80;64.10
62025;BME280;47978;49.118;12.146;2022-12-29T08:42:32;97215.81;;;6.87;64.05
62025;BME280;47978;49.118;12.146;2022-12-29T08:46:33;97215.47;;;6.93;63.53
62025;BME280;47978;49.118;12.146;2022-12-29T08:50:35;97216.25;;;6.99;63.44
62025;BME280;47978;49.118;12.146;2022-12-29T08:54:36;97213.13;;;7.06;63.15
62025;BME280;47978;49.118;12.146;2022-12-29T08:58:39;97225.50;;;7.08;63.51
62025;BME280;47978;49.118;12.146;2022-12-29T09:02:40;97210.47;;;7.01;63.92
62025;BME280;47978;49.118;12.146;2022-12-29T09:06:42;97213.03;;;6.92;64.07
62025;BME280;47978;49.118;12.146;2022-12-29T09:10:44;97213.09;;;7.11;64.18
62025;BME280;47978;49.118;12.146;2022-12-29T09:14:47;97221.03;;;7.17;63.41
62025;BME280;47978;49.118;12.146;2022-12-29T09:18:48;97227.28;;;7.23;63.23
62025;BME280;47978;49.118;12.146;2022-12-29T09:22:50;97223.38;;;7.29;63.44
62025;BME280;47978;49.118;12.146;2022-12-29T09:26:51;97223.00;;;7.36;63.77
62025;BME280;47978;49.118;12.146;2022-12-29T09:30:54;97213.16;;;7.54;63.50
62025;BME280;47978;49.118;12.146;2022-12-29T09:34:56;97210.38;;;7.59;62.46
62025;BME280;47978;49.118;12.146;2022-12-29T09:38:57;97219.44;;;7.59;62.72
62025;BME280;47978;49.118;12.146;2022-12-29T09:43:05;97210.53;;;7.68;63.38
62025;BME280;47978;49.118;12.146;2022-12-29T09:47:15;97209.78;;;7.62;63.22
62025;BME280;47978;49.118;12.146;2022-12-29T09:51:18;97197.59;;;7.68;63.54
62025;BME280;47978;49.118;12.146;2022-12-29T09:55:23;97197.19;;;7.56;64.15
62025;BME280;47978;49.118;12.146;2022-12-29T09:59:36;97188.22;;;7.69;64.25
62025;BME280;47978;49.118;12.146;2022-12-29T10:03:45;97203.03;;;7.73;64.38
62025;BME280;47978;49.118;12.146;2022-12-29T10:07:49;97187.81;;;7.81;63.82
62025;BME280;47978;49.118;12.146;2022-12-29T10:11:57;97181.09;;;7.87;63.96
62025;BME280;47978;49.118;12.146;2022-12-29T10:16:04;97174.88;;;8.00;63.73
62025;BME280;47978;49.118;12.146;2022-12-29T10:24:31;97164.72;;;8.33;63.76
62025;BME280;47978;49.118;12.146;2022-12-29T10:28:34;97153.31;;;8.59;62.71
62025;BME280;47978;49.118;12.146;2022-12-29T10:32:39;97152.00;;;8.70;63.25
62025;BME280;47978;49.118;12.146;2022-12-29T10:36:43;97149.50;;;8.88;62.31
62025;BME280;47978;49.118;12.146;2022-12-29T10:40:50;97132.78;;;8.98;62.20
62025;BME280;47978;49.118;12.146;2022-12-29T10:44:53;97128.41;;;9.11;62.77
62025;BME280;47978;49.118;12.146;2022-12-29T10:48:54;97121.06;;;9.20;62.47
62025;BME280;47978;49.118;12.146;2022-12-29T10:52:56;97120.25;;;9.19;62.12
62025;BME280;47978;49.118;12.146;2022-12-29T10:57:01;97125.75;;;9.19;63.43
62025;BME280;47978;49.118;12.146;2022-12-29T11:01:04;97128.00;;;9.17;63.75
62025;BME280;47978;49.118;12.146;2022-12-29T11:05:06;97128.72;;;9.23;63.87
62025;BME280;47978;49.118;12.146;2022-12-29T11:09:12;97125.72;;;9.33;62.37
62025;BME280;47978;49.118;12.146;2022-12-29T11:13:18;97129.09;;;9.44;62.72
62025;BME280;47978;49.118;12.146;2022-12-29T11:17:19;97129.53;;;9.23;63.08
62025;BME280;47978;49.118;12.146;2022-12-29T11:21:25;97134.22;;;9.23;63.60
62025;BME280;47978;49.118;12.146;2022-12-29T11:25:28;97125.72;;;9.33;63.62
62025;BME280;47978;49.118;12.146;2022-12-29T11:29:36;97120.63;;;9.27;63.58
62025;BME280;47978;49.118;12.146;2022-12-29T11:33:38;97131.88;;;9.30;64.14
62025;BME280;47978;49.118;12.146;2022-12-29T11:37:40;97125.63;;;9.52;64.44
62025;BME280;47978;49.118;12.146;2022-12-29T11:41:41;97125.19;;;9.59;63.00
62025;BME280;47978;49.118;12.146;2022-12-29T11:45:53;97120.09;;;9.52;63.76
62025;BME280;47978;49.118;12.146;2022-12-29T11:49:56;97129.28;;;9.48;64.12
62025;BME280;47978;49.118;12.146;2022-12-29T11:53:59;97123.69;;;9.39;64.05
62025;BME280;47978;49.118;12.146;2022-12-29T11:58:02;97118.16;;;9.39;64.37
62025;BME280;47978;49.118;12.146;2022-12-29T12:02:15;97111.00;;;9.52;64.70
62025;BME280;47978;49.118;12.146;2022-12-29T12:06:21;97104.56;;;9.56;64.17
62025;BME280;47978;49.118;12.146;2022-12-29T12:10:25;97104.44;;;9.61;63.39
62025;BME280;47978;49.118;12.146;2022-12-29T12:14:30;97099.84;;;9.71;63.25
62025;BME280;47978;49.118;12.146;2022-12-29T12:18:37;97094.06;;;9.81;63.53
62025;BME280;47978;49.118;12.146;2022-12-29T12:22:41;97100.38;;;9.95;62.63
62025;BME280;47978;49.118;12.146;2022-12-29T12:26:46;97087.81;;;9.89;63.97
62025;BME280;47978;49.118;12.146;2022-12-29T12:30:54;97082.47;;;9.93;64.10
62025;BME280;47978;49.118;12.146;2022-12-29T12:34:58;97078.53;;;10.07;63.42
62025;BME280;47978;49.118;12.146;2022-12-29T12:39:00;97079.63;;;10.20;63.05
62025;BME280;47978;49.118;12.146;2022-12-29T12:43:19;97080.31;;;10.26;62.97
62025;BME280;47978;49.118;12.146;2022-12-29T12:47:29;97087.69;;;10.30;63.69
62025;BME280;47978;49.118;12.146;2022-12-29T12:51:40;97090.69;;;10.43;63.30
62025;BME280;47978;49.118;12.146;2022-12-29T12:55:47;97088.88;;;10.38;64.15
62025;BME280;47978;49.118;12.146;2022-12-29T12:59:56;97080.28;;;10.40;64.18
62025;BME280;47978;49.118;12.146;2022-12-29T13:04:05;97075.75;;;10.44;64.28
62025;BME280;47978;49.118;12.146;2022-12-29T13:08:23;97080.22;;;10.53;64.46
62025;BME280;47978;49.118;12.146;2022-12-29T13:12:30;97071.16;;;10.62;63.99
62025;BME280;47978;49.118;12.146;2022-12-29T13:16:34;97064.47;;;10.63;64.90
62025;BME280;47978;49.118;12.146;2022-12-29T13:20:40;97074.97;;;10.52;64.58
62025;BME280;47978;49.118;12.146;2022-12-29T13:24:53;97075.16;;;10.33;65.41
62025;BME280;47978;49.118;12.146;2022-12-29T13:28:59;97069.03;;;10.36;67.05
62025;BME280;47978;49.118;12.146;2022-12-29T13:33:06;97068.88;;;10.41;67.26
62025;BME280;47978;49.118;12.146;2022-12-29T13:37:22;97068.13;;;10.49;65.72
62025;BME280;47978;49.118;12.146;2022-12-29T13:41:29;97067.06;;;10.59;65.94
62025;BME280;47978;49.118;12.146;2022-12-29T13:45:32;97064.03;;;10.47;66.64
62025;BME280;47978;49.118;12.146;2022-12-29T13:49:35;97067.25;;;10.63;65.55
62025;BME280;47978;49.118;12.146;2022-12-29T13:53:39;97076.31;;;10.54;66.13
62025;BME280;47978;49.118;12.146;2022-12-29T13:57:44;97072.97;;;10.44;67.82
62025;BME280;47978;49.118;12.146;2022-12-29T14:01:52;97069.03;;;10.36;67.35
62025;BME280;47978;49.118;12.146;2022-12-29T14:06:03;97068.19;;;10.35;68.10
62025;BME280;47978;49.118;12.146;2022-12-29T14:10:05;97083.78;;;10.31;67.73
62025;BME280;47978;49.118;12.146;2022-12-29T14:14:12;97082.31;;;10.11;69.18
62025;BME280;47978;49.118;12.146;2022-12-29T14:18:16;97080.31;;;10.26;68.12
62025;BME280;47978;49.118;12.146;2022-12-29T14:22:22;97079.31;;;10.22;69.76
62025;BME280;47978;49.118;12.146;2022-12-29T14:26:33;97077.31;;;10.13;69.82
62025;BME280;47978;49.118;12.146;2022-12-29T14:34:59;97084.00;;;10.21;69.63
62025;BME280;47978;49.118;12.146;2022-12-29T14:39:01;97091.19;;;10.22;69.14
62025;BME280;47978;49.118;12.146;2022-12-29T14:43:02;97093.44;;;10.20;69.77
62025;BME280;47978;49.118;12.146;2022-12-29T14:47:14;97100.59;;;10.21;69.18
62025;BME280;47978;49.118;12.146;2022-12-29T14:51:26;97106.19;;;10.30;68.56
62025;BME280;47978;49.118;12.146;2022-12-29T14:55:30;97113.75;;;10.38;68.46
62025;BME280;47978;49.118;12.146;2022-12-29T14:59:32;97103.34;;;10.21;70.11
62025;BME280;47978;49.118;12.146;2022-12-29T15:03:38;97107.53;;;10.19;69.81
62025;BME280;47978;49.118;12.146;2022-12-29T15:07:46;97107.63;;;10.05;70.75
62025;BME280;47978;49.118;12.146;2022-12-29T15:11:48;97112.72;;;10.11;69.96
62025;BME280;47978;49.118;12.146;2022-12-29T15:15:51;97116.94;;;9.95;71.19
62025;BME280;47978;49.118;12.146;2022-12-29T15:19:52;97110.53;;;9.86;71.09
62025;BME280;47978;49.118;12.146;2022-12-29T15:23:55;97116.78;;;9.78;72.71
62025;BME280;47978;49.118;12.146;2022-12-29T15:27:57;97114.66;;;9.61;73.33
62025;BME280;47978;49.118;12.146;2022-12-29T15:31:59;97111.53;;;9.54;73.06
62025;BME280;47978;49.118;12.146;2022-12-29T15:36:03;97116.28;;;9.62;73.08
62025;BME280;47978;49.118;12.146;2022-12-29T15:40:19;97109.97;;;9.48;73.58
62025;BME280;47978;49.118;12.146;2022-12-29T15:44:23;97112.25;;;9.59;72.81
62025;BME280;47978;49.118;12.146;2022-12-29T15:48:26;97110.09;;;9.42;73.71
62025;BME280;47978;49.118;12.146;2022-12-29T15:52:28;97109.31;;;9.28;74.82
62025;BME280;47978;49.118;12.146;2022-12-29T15:56:31;97120.63;;;9.27;75.33
62025;BME280;47978;49.118;12.146;2022-12-29T16:00:35;97124.41;;;9.03;75.81
62025;BME280;47978;49.118;12.146;2022-12-29T16:04:36;97125.53;;;8.88;76.69
62025;BME280;47978;49.118;12.146;2022-12-29T16:08:59;97127.22;;;8.84;76.90
62025;BME280;47978;49.118;12.146;2022-12-29T16:13:03;97113.25;;;8.81;77.00
62025;BME280;47978;49.118;12.146;2022-12-29T16:17:05;97112.50;;;8.61;77.36
62025;BME280;47978;49.118;12.146;2022-12-29T16:21:14;97115.22;;;8.47;78.66
62025;BME280;47978;49.118;12.146;2022-12-29T16:25:18;97123.50;;;8.28;79.19
62025;BME280;47978;49.118;12.146;2022-12-29T16:29:22;97121.78;;;8.14;79.88
62025;BME280;47978;49.118;12.146;2022-12-29T16:33:35;97115.47;;;8.13;80.16
62025;BME280;47978;49.118;12.146;2022-12-29T16:37:37;97119.63;;;8.10;80.29
62025;BME280;47978;49.118;12.146;2022-12-29T16:41:39;97130.00;;;8.00;80.58
62025;BME280;47978;49.118;12.146;2022-12-29T16:50:11;97125.91;;;7.78;81.42
62025;BME280;47978;49.118;12.146;2022-12-29T16:54:17;97127.63;;;7.74;81.83
62025;BME280;47978;49.118;12.146;2022-12-29T16:58:20;97129.84;;;7.72;82.06
62025;BME280;47978;49.118;12.146;2022-12-29T17:02:23;97131.25;;;7.70;82.12
62025;BME280;47978;49.118;12.146;2022-12-29T17:06:27;97114.13;;;7.54;82.66
62025;BME280;47978;49.118;12.146;2022-12-29T17:10:28;97113.75;;;7.41;83.19
62025;BME280;47978;49.118;12.146;2022-12-29T17:14:40;97121.56;;;7.34;83.88
62025;BME280;47978;49.118;12.146;2022-12-29T17:18:42;97139.94;;;7.15;84.56
62025;BME280;47978;49.118;12.146;2022-12-29T17:22:45;97132.66;;;7.00;85.28
62025;BME280;47978;49.118;12.146;2022-12-29T17:26:47;97134.13;;;6.92;85.33
62025;BME280;47978;49.118;12.146;2022-12-29T17:30:50;97146.97;;;6.73;86.01
62025;BME280;47978;49.118;12.146;2022-12-29T17:34:52;97150.34;;;6.65;86.64
62025;BME280;47978;49.118;12.146;2022-12-29T17:38:55;97146.25;;;6.62;87.38
62025;BME280;47978;49.118;12.146;2022-12-29T17:42:57;97147.59;;;6.65;87.99
62025;BME280;47978;49.118;12.146;2022-12-29T17:46:59;97133.59;;;6.66;87.83
62025;BME280;47978;49.118;12.146;2022-12-29T17:51:00;97145.22;;;6.82;87.65
62025;BME280;47978;49.118;12.146;2022-12-29T17:55:03;97139.94;;;6.86;87.45
62025;BME280;47978;49.118;12.146;2022-12-29T17:59:07;97147.34;;;6.90;87.61
62025;BME280;47978;49.118;12.146;2022-12-29T18:03:13;97138.69;;;7.02;87.15
62025;BME280;47978;49.118;12.146;2022-12-29T18:07:15;97141.16;;;7.04;87.36
62025;BME280;47978;49.118;12.146;2022-12-29T18:11:21;97131.72;;;7.10;87.44
62025;BME280;47978;49.118;12.146;2022-12-29T18:15:24;97124.25;;;7.15;87.34
62025;BME280;47978;49.118;12.146;2022-12-29T18:19:26;97124.00;;;7.36;86.16
62025;BME280;47978;49.118;12.146;2022-12-29T18:23:35;97126.31;;;7.48;85.44
62025;BME280;47978;49.118;12.146;2022-12-29T18:27:38;97127.38;;;7.52;85.29
62025;BME280;47978;49.118;12.146;2022-12-29T18:31:40;97135.34;;;7.72;84.18
62025;BME280;47978;49.118;12.146;2022-12-29T18:35:41;97133.63;;;7.76;83.86
62025;BME280;47978;49.118;12.146;2022-12-29T18:39:44;97124.03;;;7.74;83.63
62025;BME280;47978;49.118;12.146;2022-12-29T18:43:47;97138.38;;;7.71;83.60
62025;BME280;47978;49.118;12.146;2022-12-29T18:47:49;97142.34;;;7.83;82.98
62025;BME280;47978;49.118;12.146;2022-12-29T18:51:51;97142.63;;;7.63;84.14
62025;BME280;47978;49.118;12.146;2022-12-29T18:55:52;97152.31;;;7.60;84.90
62025;BME280;47978;49.118;12.146;2022-12-29T18:59:55;97147.06;;;7.59;84.79
62025;BME280;47978;49.118;12.146;2022-12-29T19:03:57;97157.50;;;7.62;85.57
62025;BME280;47978;49.118;12.146;2022-12-29T19:07:58;97168.28;;;7.58;85.60
62025;BME280;47978;49.118;12.146;2022-12-29T19:11:59;97172.66;;;7.59;86.37
62025;BME280;47978;49.118;12.146;2022-12-29T19:16:02;97179.06;;;7.55;86.61
62025;BME280;47978;49.118;12.146;2022-12-29T19:20:04;97195.09;;;7.48;86.99
62025;BME280;47978;49.118;12.146;2022-12-29T19:24:06;97206.56;;;7.55;87.07
62025;BME280;47978;49.118;12.146;2022-12-29T19:28:11;97208.78;;;7.53;86.46
62025;BME280;47978;49.118;12.146;2022-12-29T19:32:16;97209.38;;;7.50;87.39
62025;BME280;47978;49.118;12.146;2022-12-29T19:36:17;97206.91;;;7.48;87.76
62025;BME280;47978;49.118;12.146;2022-12-29T19:40:20;97197.31;;;7.46;88.03
62025;BME280;47978;49.118;12.146;2022-12-29T19:44:22;97193.75;;;7.45;87.98
62025;BME280;47978;49.118;12.146;2022-12-29T19:48:24;97195.50;;;7.36;88.83
62025;BME280;47978;49.118;12.146;2022-12-29T19:52:26;97193.06;;;7.34;89.05
62025;BME280;47978;49.118;12.146;2022-12-29T19:56:28;97183.50;;;7.27;89.72
62025;BME280;47978;49.118;12.146;2022-12-29T20:00:29;97193.88;;;7.35;89.43
62025;BME280;47978;49.118;12.146;2022-12-29T20:04:32;97192.00;;;7.30;89.51
62025;BME280;47978;49.118;12.146;2022-12-29T20:08:34;97187.56;;;7.34;89.57
62025;BME280;47978;49.118;12.146;2022-12-29T20:12:36;97201.38;;;7.29;90.15
62025;BME280;47978;49.118;12.146;2022-12-29T20:16:37;97196.91;;;7.33;89.89
62025;BME280;47978;49.118;12.146;2022-12-29T20:21:03;97190.06;;;7.31;90.06
62025;BME280;47978;49.118;12.146;2022-12-29T20:25:06;97199.03;;;7.41;90.06
62025;BME280;47978;49.118;12.146;2022-12-29T20:29:27;97193.63;;;7.31;90.61
62025;BME280;47978;49.118;12.146;2022-12-29T20:33:32;97210.06;;;7.36;90.11
62025;BME280;47978;49.118;12.146;2022-12-29T20:37:35;97203.22;;;7.34;90.18
62025;BME280;47978;49.118;12.146;2022-12-29T20:41:36;97216.69;;;7.35;90.35
62025;BME280;47978;49.118;12.146;2022-12-29T20:45:38;97203.34;;;7.24;91.37
62025;BME280;47978;49.118;12.146;2022-12-29T20:49:39;97202.78;;;7.27;91.03
62025;BME280;47978;49.118;12.146;2022-12-29T20:53:42;97201.66;;;7.28;91.18
62025;BME280;47978;49.118;12.146;2022-12-29T20:57:43;97195.16;;;7.18;91.36
62025;BME280;47978;49.118;12.146;2022-12-29T21:02:05;97198.44;;;7.20;91.11
62025;BME280;47978;49.118;12.146;2022-12-29T21:06:06;97190.09;;;7.26;91.27
62025;BME280;47978;49.118;12.146;2022-12-29T21:10:10;97195.31;;;7.27;91.17
62025;BME280;47978;49.118;12.146;2022-12-29T21:14:11;97190.41;;;7.24;91.05
62025;BME280;47978;49.118;12.146;2022-12-29T21:18:12;97197.63;;;7.20;91.37
62025;BME280;47978;49.118;12.146;2022-12-29T21:22:14;97190.47;;;7.19;91.23
62025;BME280;47978;49.118;12.146;2022-12-29T21:26:17;97199.47;;;7.25;91.23
62025;BME280;47978;49.118;12.146;2022-12-29T21:30:19;97194.03;;;7.19;91.22
62025;BME280;47978;49.118;12.146;2022-12-29T21:34:20;97194.34;;;7.18;91.51
62025;BME280;47978;49.118;12.146;2022-12-29T21:38:21;97194.22;;;7.28;90.89
62025;BME280;47978;49.118;12.146;2022-12-29T21:42:24;97200.88;;;7.22;91.17
62025;BME280;47978;49.118;12.146;2022-12-29T21:46:26;97200.59;;;7.24;91.35